createdAt,value
2023-07-03T00:00:22.249Z,94950.00
2023-07-03T00:01:22.293Z,94948.00
2023-07-03T00:02:22.748Z,94947.00
2023-07-03T00:03:22.376Z,94950.00
2023-07-03T00:04:22.468Z,94949.00
2023-07-03T00:05:22.589Z,94948.00
2023-07-03T00:06:22.536Z,94949.00
2023-07-03T00:07:22.539Z,94946.00
2023-07-03T00:08:22.590Z,94943.00
2023-07-03T00:09:22.653Z,94942.00
2023-07-03T00:10:22.693Z,94938.00
2023-07-03T00:11:22.731Z,94940.00
2023-07-03T00:12:22.815Z,94937.00
2023-07-03T00:13:22.890Z,94937.00
2023-07-03T00:14:22.916Z,94937.00
2023-07-03T00:15:22.968Z,94937.00
2023-07-03T00:16:23.067Z,94938.00
2023-07-03T00:17:23.126Z,94937.00
2023-07-03T00:18:23.130Z,94939.00
2023-07-03T00:19:23.164Z,94938.00
2023-07-03T00:20:23.230Z,94939.00
2023-07-03T00:21:23.290Z,94940.00
2023-07-03T00:22:23.337Z,94937.00
2023-07-03T00:23:23.366Z,94939.00
2023-07-03T00:24:23.454Z,94938.00
2023-07-03T00:25:23.533Z,94938.00
2023-07-03T00:26:23.542Z,94939.00
2023-07-03T00:27:23.613Z,94939.00
2023-07-03T00:28:23.673Z,94939.00
2023-07-03T00:29:23.711Z,94939.00
2023-07-03T00:30:23.782Z,94939.00
2023-07-03T00:31:23.930Z,94941.00
2023-07-03T00:32:23.898Z,94941.00
2023-07-03T00:33:23.983Z,94943.00
2023-07-03T00:34:24.019Z,94945.00
2023-07-03T00:35:24.061Z,94946.00
2023-07-03T00:36:24.129Z,94944.00
2023-07-03T00:37:24.178Z,94947.00
2023-07-03T00:38:24.213Z,94948.00
2023-07-03T00:39:24.273Z,94947.00
2023-07-03T00:40:24.330Z,94946.00
2023-07-03T00:41:24.412Z,94946.00
2023-07-03T00:42:24.434Z,94944.00
2023-07-03T00:43:24.522Z,94944.00
2023-07-03T00:44:24.559Z,94942.00
2023-07-03T00:45:24.636Z,94944.00
2023-07-03T00:46:24.687Z,94943.00
2023-07-03T00:47:24.786Z,94945.00
2023-07-03T00:48:24.779Z,94944.00
2023-07-03T00:49:24.843Z,94943.00
2023-07-03T00:50:24.889Z,94944.00
2023-07-03T00:51:24.904Z,94942.00
2023-07-03T00:52:24.977Z,94943.00
2023-07-03T00:53:25.052Z,94943.00
2023-07-03T00:54:25.055Z,94945.00
2023-07-03T00:55:25.152Z,94944.00
2023-07-03T00:56:25.224Z,94944.00
2023-07-03T00:57:25.256Z,94944.00
2023-07-03T00:58:25.311Z,94946.00
2023-07-03T00:59:25.399Z,94944.00
2023-07-03T01:00:25.430Z,94943.00
2023-07-03T01:01:25.531Z,94945.00
2023-07-03T01:02:25.587Z,94945.00
2023-07-03T01:03:25.681Z,94943.00
2023-07-03T01:04:25.806Z,94947.00
2023-07-03T01:05:25.925Z,94950.00
2023-07-03T01:06:25.782Z,94951.00
2023-07-03T01:07:25.846Z,94954.00
2023-07-03T01:08:25.923Z,94956.00
2023-07-03T01:09:25.995Z,94958.00
2023-07-03T01:10:26.054Z,94957.00
2023-07-03T01:11:26.108Z,94956.00
2023-07-03T01:12:26.168Z,94956.00
2023-07-03T01:13:26.238Z,94958.00
2023-07-03T01:14:26.306Z,94958.00
2023-07-03T01:15:26.328Z,94957.00
2023-07-03T01:16:26.451Z,94956.00
2023-07-03T01:17:26.519Z,94960.00
2023-07-03T01:18:26.538Z,94959.00
2023-07-03T01:19:26.578Z,94958.00
2023-07-03T01:20:26.671Z,94959.00
2023-07-03T01:21:26.732Z,94959.00
2023-07-03T01:22:26.737Z,94960.00
2023-07-03T01:23:26.758Z,94959.00
2023-07-03T01:24:26.848Z,94961.00
2023-07-03T01:25:26.829Z,94962.00
2023-07-03T01:26:26.863Z,94960.00
2023-07-03T01:27:26.971Z,94962.00
2023-07-03T01:28:26.892Z,94961.00
2023-07-03T01:29:26.944Z,94962.00
2023-07-03T01:30:26.926Z,94962.00
2023-07-03T01:31:26.958Z,94962.00
2023-07-03T01:32:26.990Z,94963.00
2023-07-03T01:33:27.001Z,94963.00
2023-07-03T01:34:27.028Z,94963.00
2023-07-03T01:35:27.038Z,94962.00
2023-07-03T01:36:27.126Z,94963.00
2023-07-03T01:37:27.113Z,94963.00
2023-07-03T01:38:27.162Z,94961.00
2023-07-03T01:39:27.190Z,94963.00
2023-07-03T01:40:27.212Z,94964.00
2023-07-03T01:41:27.248Z,94966.00
2023-07-03T01:42:27.243Z,94966.00
2023-07-03T01:43:27.309Z,94966.00
2023-07-03T01:44:27.326Z,94966.00
2023-07-03T01:45:27.298Z,94967.00
2023-07-03T01:46:27.382Z,94968.00
2023-07-03T01:47:27.407Z,94967.00
2023-07-03T01:48:27.344Z,94966.00
2023-07-03T01:49:27.364Z,94965.00
2023-07-03T01:50:27.374Z,94964.00
2023-07-03T01:51:27.338Z,94967.00
2023-07-03T01:52:27.319Z,94964.00
2023-07-03T01:53:27.337Z,94966.00
2023-07-03T01:54:27.346Z,94967.00
2023-07-03T01:55:27.325Z,94965.00
2023-07-03T01:56:27.329Z,94964.00
2023-07-03T01:57:27.370Z,94964.00
2023-07-03T01:58:27.439Z,94965.00
2023-07-03T01:59:27.362Z,94964.00
2023-07-03T02:00:27.433Z,94963.00
2023-07-03T02:01:27.454Z,94962.00
2023-07-03T02:02:27.501Z,94960.00
2023-07-03T02:03:27.479Z,94958.00
2023-07-03T02:04:27.431Z,94956.00
2023-07-03T02:05:27.408Z,94955.00
2023-07-03T02:06:27.420Z,94955.00
2023-07-03T02:07:27.405Z,94951.00
2023-07-03T02:08:27.408Z,94952.00
2023-07-03T02:09:27.431Z,94952.00
2023-07-03T02:10:27.407Z,94952.00
2023-07-03T02:11:27.438Z,94950.00
2023-07-03T02:12:27.441Z,94954.00
2023-07-03T02:13:27.488Z,94950.00
2023-07-03T02:14:27.527Z,94954.00
2023-07-03T02:15:27.557Z,94953.00
2023-07-03T02:16:27.618Z,94955.00
2023-07-03T02:17:27.594Z,94954.00
2023-07-03T02:18:27.564Z,94955.00
2023-07-03T02:19:27.560Z,94956.00
2023-07-03T02:20:27.574Z,94956.00
2023-07-03T02:21:27.572Z,94955.00
2023-07-03T02:22:27.596Z,94957.00
2023-07-03T02:23:27.573Z,94956.00
2023-07-03T02:24:27.629Z,94956.00
2023-07-03T02:25:27.610Z,94956.00
2023-07-03T02:26:27.633Z,94956.00
2023-07-03T02:27:27.647Z,94955.00
2023-07-03T02:28:27.665Z,94956.00
2023-07-03T02:29:27.650Z,94953.00
2023-07-03T02:30:27.752Z,94953.00
2023-07-03T02:31:27.792Z,94954.00
2023-07-03T02:32:27.724Z,94956.00
2023-07-03T02:33:27.709Z,94956.00
2023-07-03T02:34:27.714Z,94953.00
2023-07-03T02:35:27.696Z,94955.00
2023-07-03T02:36:27.718Z,94954.00
2023-07-03T02:37:27.754Z,94954.00
2023-07-03T02:38:27.741Z,94954.00
2023-07-03T02:39:27.772Z,94957.00
2023-07-03T02:40:27.778Z,94956.00
2023-07-03T02:41:27.807Z,94956.00
2023-07-03T02:42:27.814Z,94956.00
2023-07-03T02:43:27.790Z,94956.00
2023-07-03T02:44:27.856Z,94955.00
2023-07-03T02:45:27.813Z,94955.00
2023-07-03T02:46:27.842Z,94957.00
2023-07-03T02:47:28.073Z,94955.00
2023-07-03T02:48:27.873Z,94954.00
2023-07-03T02:49:27.956Z,94954.00
2023-07-03T02:50:27.901Z,94954.00
2023-07-03T02:51:27.934Z,94951.00
2023-07-03T02:52:27.936Z,94952.00
2023-07-03T02:53:27.987Z,94951.00
2023-07-03T02:54:27.939Z,94953.00
2023-07-03T02:55:27.983Z,94954.00
2023-07-03T02:56:28.009Z,94954.00
2023-07-03T02:57:27.972Z,94951.00
2023-07-03T02:58:28.057Z,94953.00
2023-07-03T02:59:28.043Z,94951.00
2023-07-03T03:00:28.048Z,94952.00
2023-07-03T03:01:28.065Z,94951.00
2023-07-03T03:02:28.089Z,94950.00
2023-07-03T03:03:28.188Z,94951.00
2023-07-03T03:04:28.066Z,94947.00
2023-07-03T03:05:28.075Z,94948.00
2023-07-03T03:06:28.080Z,94950.00
2023-07-03T03:07:28.124Z,94949.00
2023-07-03T03:08:28.127Z,94949.00
2023-07-03T03:09:28.154Z,94950.00
2023-07-03T03:10:28.147Z,94952.00
2023-07-03T03:11:28.167Z,94954.00
2023-07-03T03:12:28.201Z,94952.00
2023-07-03T03:13:28.198Z,94954.00
2023-07-03T03:14:28.288Z,94954.00
2023-07-03T03:15:28.268Z,94954.00
2023-07-03T03:16:28.292Z,94952.00
2023-07-03T03:17:28.301Z,94953.00
2023-07-03T03:18:28.305Z,94954.00
2023-07-03T03:19:28.265Z,94955.00
2023-07-03T03:20:28.322Z,94954.00
2023-07-03T03:21:28.311Z,94955.00
2023-07-03T03:22:28.281Z,94953.00
2023-07-03T03:23:28.309Z,94954.00
2023-07-03T03:24:28.342Z,94954.00
2023-07-03T03:25:28.340Z,94955.00
2023-07-03T03:26:28.352Z,94953.00
2023-07-03T03:27:28.331Z,94953.00
2023-07-03T03:28:28.365Z,94952.00
2023-07-03T03:29:28.331Z,94952.00
2023-07-03T03:30:28.391Z,94952.00
2023-07-03T03:31:28.389Z,94952.00
2023-07-03T03:32:28.417Z,94954.00
2023-07-03T03:33:28.359Z,94953.00
2023-07-03T03:34:28.393Z,94953.00
2023-07-03T03:35:28.395Z,94954.00
2023-07-03T03:36:28.403Z,94953.00
2023-07-03T03:37:28.404Z,94954.00
2023-07-03T03:38:28.397Z,94953.00
2023-07-03T03:39:28.392Z,94956.00
2023-07-03T03:40:28.411Z,94953.00
2023-07-03T03:41:28.421Z,94955.00
2023-07-03T03:42:28.430Z,94954.00
2023-07-03T03:43:28.477Z,94951.00
2023-07-03T03:44:28.449Z,94953.00
2023-07-03T03:45:28.462Z,94953.00
2023-07-03T03:46:28.476Z,94950.00
2023-07-03T03:47:28.482Z,94950.00
2023-07-03T03:48:28.528Z,94950.00
2023-07-03T03:49:28.457Z,94952.00
2023-07-03T03:50:28.461Z,94952.00
2023-07-03T03:51:28.511Z,94955.00
2023-07-03T03:52:28.467Z,94956.00
2023-07-03T03:53:28.479Z,94955.00
2023-07-03T03:54:28.483Z,94956.00
2023-07-03T03:55:28.490Z,94955.00
2023-07-03T03:56:28.478Z,94957.00
2023-07-03T03:57:28.507Z,94959.00
2023-07-03T03:58:28.508Z,94959.00
2023-07-03T03:59:28.485Z,94962.00
2023-07-03T04:00:28.557Z,94963.00
2023-07-03T04:01:28.531Z,94966.00
2023-07-03T04:02:28.525Z,94967.00
2023-07-03T04:03:28.560Z,94966.00
2023-07-03T04:04:28.532Z,94969.00
2023-07-03T04:05:28.524Z,94968.00
2023-07-03T04:06:28.557Z,94968.00
2023-07-03T04:07:28.541Z,94967.00
2023-07-03T04:08:28.576Z,94971.00
2023-07-03T04:09:28.582Z,94971.00
2023-07-03T04:10:28.586Z,94970.00
2023-07-03T04:11:28.578Z,94970.00
2023-07-03T04:12:28.598Z,94972.00
2023-07-03T04:13:28.642Z,94972.00
2023-07-03T04:14:28.631Z,94972.00
2023-07-03T04:15:28.623Z,94972.00
2023-07-03T04:16:28.686Z,94973.00
2023-07-03T04:17:28.697Z,94974.00
2023-07-03T04:18:28.630Z,94974.00
2023-07-03T04:19:28.746Z,94975.00
2023-07-03T04:20:28.675Z,94976.00
2023-07-03T04:21:28.701Z,94977.00
2023-07-03T04:22:28.722Z,94977.00
2023-07-03T04:23:28.745Z,94977.00
2023-07-03T04:24:28.760Z,94978.00
2023-07-03T04:25:28.742Z,94978.00
2023-07-03T04:26:28.787Z,94977.00
2023-07-03T04:27:28.799Z,94980.00
2023-07-03T04:28:28.831Z,94979.00
2023-07-03T04:29:28.825Z,94979.00
2023-07-03T04:30:28.847Z,94979.00
2023-07-03T04:31:28.931Z,94979.00
2023-07-03T04:32:28.893Z,94979.00
2023-07-03T04:33:28.875Z,94980.00
2023-07-03T04:34:28.891Z,94981.00
2023-07-03T04:35:28.919Z,94981.00
2023-07-03T04:36:28.926Z,94982.00
2023-07-03T04:37:28.950Z,94982.00
2023-07-03T04:38:28.964Z,94984.00
2023-07-03T04:39:28.997Z,94984.00
2023-07-03T04:40:30.870Z,94982.00
2023-07-03T04:41:29.033Z,94982.00
2023-07-03T04:42:29.075Z,94980.00
2023-07-03T04:43:29.041Z,94982.00
2023-07-03T04:44:29.153Z,94982.00
2023-07-03T04:45:29.090Z,94982.00
2023-07-03T04:46:29.171Z,94981.00
2023-07-03T04:47:29.212Z,94978.00
2023-07-03T04:48:29.162Z,94977.00
2023-07-03T04:49:29.195Z,94976.00
2023-07-03T04:50:29.209Z,94976.00
2023-07-03T04:51:29.250Z,94976.00
2023-07-03T04:52:29.253Z,94978.00
2023-07-03T04:53:29.288Z,94976.00
2023-07-03T04:54:29.307Z,94975.00
2023-07-03T04:55:29.355Z,94976.00
2023-07-03T04:56:29.409Z,94976.00
2023-07-03T04:57:29.418Z,94975.00
2023-07-03T04:58:29.394Z,94976.00
2023-07-03T04:59:29.428Z,94978.00
2023-07-03T05:00:29.512Z,94978.00
2023-07-03T05:01:29.493Z,94978.00
2023-07-03T05:02:31.824Z,94978.00
2023-07-03T05:03:29.545Z,94978.00
2023-07-03T05:04:29.493Z,94978.00
2023-07-03T05:05:29.517Z,94979.00
2023-07-03T05:06:29.522Z,94981.00
2023-07-03T05:07:29.529Z,94980.00
2023-07-03T05:08:29.537Z,94982.00
2023-07-03T05:09:29.531Z,94981.00
2023-07-03T05:10:29.529Z,94981.00
2023-07-03T05:11:29.552Z,94982.00
2023-07-03T05:12:29.528Z,94983.00
2023-07-03T05:13:29.567Z,94982.00
2023-07-03T05:14:29.589Z,94982.00
2023-07-03T05:15:29.563Z,94981.00
2023-07-03T05:16:29.883Z,94982.00
2023-07-03T05:17:29.597Z,94980.00
2023-07-03T05:18:29.592Z,94981.00
2023-07-03T05:19:29.626Z,94982.00
2023-07-03T05:20:29.614Z,94983.00
2023-07-03T05:21:29.611Z,94984.00
2023-07-03T05:22:29.645Z,94985.00
2023-07-03T05:23:29.654Z,94983.00
2023-07-03T05:24:29.640Z,94984.00
2023-07-03T05:25:29.653Z,94983.00
2023-07-03T05:26:29.656Z,94985.00
2023-07-03T05:27:29.658Z,94985.00
2023-07-03T05:28:29.636Z,94986.00
2023-07-03T05:29:29.682Z,94987.00
2023-07-03T05:30:29.677Z,94988.00
2023-07-03T05:31:29.906Z,94989.00
2023-07-03T05:32:29.683Z,94990.00
2023-07-03T05:33:29.679Z,94989.00
2023-07-03T05:34:29.732Z,94990.00
2023-07-03T05:35:29.719Z,94988.00
2023-07-03T05:36:29.750Z,94987.00
2023-07-03T05:37:29.801Z,94987.00
2023-07-03T05:38:29.838Z,94987.00
2023-07-03T05:39:32.585Z,94984.00
2023-07-03T05:40:29.831Z,94986.00
2023-07-03T05:41:29.832Z,94986.00
2023-07-03T05:42:29.805Z,94986.00
2023-07-03T05:43:29.818Z,94986.00
2023-07-03T05:44:29.804Z,94988.00
2023-07-03T05:45:29.797Z,94988.00
2023-07-03T05:46:29.793Z,94987.00
2023-07-03T05:47:29.768Z,94988.00
2023-07-03T05:48:29.720Z,94989.00
2023-07-03T05:49:29.737Z,94989.00
2023-07-03T05:50:29.730Z,94991.00
2023-07-03T05:51:29.726Z,94991.00
2023-07-03T05:52:29.697Z,94994.00
2023-07-03T05:53:29.658Z,94995.00
2023-07-03T05:54:29.646Z,94992.00
2023-07-03T05:55:29.651Z,94995.00
2023-07-03T05:56:29.712Z,94993.00
2023-07-03T05:57:29.694Z,94994.00
2023-07-03T05:58:29.640Z,94996.00
2023-07-03T05:59:29.613Z,95000.00
2023-07-03T06:00:29.598Z,95000.00
2023-07-03T06:01:29.691Z,95001.00
2023-07-03T06:02:29.599Z,95002.00
2023-07-03T06:03:29.633Z,95003.00
2023-07-03T06:04:29.594Z,95004.00
2023-07-03T06:05:29.588Z,95004.00
2023-07-03T06:06:29.554Z,95005.00
2023-07-03T06:07:29.549Z,95004.00
2023-07-03T06:08:29.556Z,95002.00
2023-07-03T06:09:29.550Z,95003.00
2023-07-03T06:10:29.595Z,95004.00
2023-07-03T06:11:29.524Z,95005.00
2023-07-03T06:12:29.508Z,95004.00
2023-07-03T06:13:29.501Z,95004.00
2023-07-03T06:14:29.523Z,95002.00
2023-07-03T06:15:29.489Z,95002.00
2023-07-03T06:16:29.468Z,95002.00
2023-07-03T06:17:29.511Z,95005.00
2023-07-03T06:18:29.446Z,95003.00
2023-07-03T06:19:29.455Z,95003.00
2023-07-03T06:20:29.464Z,95002.00
2023-07-03T06:21:29.417Z,95003.00
2023-07-03T06:22:29.387Z,95002.00
2023-07-03T06:23:29.390Z,95001.00
2023-07-03T06:24:29.373Z,94998.00
2023-07-03T06:25:29.353Z,94999.00
2023-07-03T06:26:29.351Z,95000.00
2023-07-03T06:27:29.329Z,94996.00
2023-07-03T06:28:29.322Z,94999.00
2023-07-03T06:29:29.321Z,94997.00
2023-07-03T06:30:29.374Z,94995.00
2023-07-03T06:31:29.351Z,94996.00
2023-07-03T06:32:29.288Z,94995.00
2023-07-03T06:33:29.263Z,94996.00
2023-07-03T06:34:29.228Z,94996.00
2023-07-03T06:35:29.291Z,94994.00
2023-07-03T06:36:29.224Z,94996.00
2023-07-03T06:37:29.338Z,94994.00
2023-07-03T06:38:29.201Z,94996.00
2023-07-03T06:39:29.139Z,94994.00
2023-07-03T06:40:29.255Z,94993.00
2023-07-03T06:41:29.107Z,94991.00
2023-07-03T06:42:29.121Z,94993.00
2023-07-03T06:43:29.075Z,94990.00
2023-07-03T06:44:29.077Z,94989.00
2023-07-03T06:45:29.046Z,94991.00
2023-07-03T06:46:29.095Z,94990.00
2023-07-03T06:47:29.042Z,94989.00
2023-07-03T06:48:29.005Z,94987.00
2023-07-03T06:49:29.014Z,94990.00
2023-07-03T06:50:29.041Z,94990.00
2023-07-03T06:51:28.966Z,94990.00
2023-07-03T06:52:28.945Z,94990.00
2023-07-03T06:53:29.042Z,94992.00
2023-07-03T06:54:28.989Z,94988.00
2023-07-03T06:55:28.918Z,94991.00
2023-07-03T06:56:28.927Z,94990.00
2023-07-03T06:57:28.865Z,94991.00
2023-07-03T06:58:28.880Z,94990.00
2023-07-03T06:59:28.908Z,94990.00
2023-07-03T07:00:28.957Z,94990.00
2023-07-03T07:01:28.960Z,94987.00
2023-07-03T07:02:28.985Z,94986.00
2023-07-03T07:03:29.061Z,94987.00
2023-07-03T07:04:29.902Z,94987.00
2023-07-03T07:05:29.049Z,94988.00
2023-07-03T07:06:29.083Z,94987.00
2023-07-03T07:07:29.086Z,94986.00
2023-07-03T07:08:29.072Z,94985.00
2023-07-03T07:09:29.239Z,94983.00
2023-07-03T07:10:29.108Z,94983.00
2023-07-03T07:11:29.110Z,94983.00
2023-07-03T07:12:29.133Z,94982.00
2023-07-03T07:13:29.188Z,94980.00
2023-07-03T07:14:29.151Z,94977.00
2023-07-03T07:15:29.193Z,94974.00
2023-07-03T07:16:29.265Z,94974.00
2023-07-03T07:17:45.890Z,94974.00
2023-07-03T07:18:30.206Z,94974.00
2023-07-03T07:19:29.202Z,94973.00
2023-07-03T07:20:29.151Z,94971.00
2023-07-03T07:21:29.170Z,94972.00
2023-07-03T07:22:29.130Z,94973.00
2023-07-03T07:23:29.134Z,94973.00
2023-07-03T07:24:29.174Z,94971.00
2023-07-03T07:25:29.188Z,94971.00
2023-07-03T07:26:29.161Z,94971.00
2023-07-03T07:27:29.133Z,94969.00
2023-07-03T07:28:29.168Z,94966.00
2023-07-03T07:29:29.111Z,94966.00
2023-07-03T07:30:29.139Z,94967.00
2023-07-03T07:31:29.166Z,94965.00
2023-07-03T07:32:29.155Z,94966.00
2023-07-03T07:33:29.132Z,94966.00
2023-07-03T07:34:29.151Z,94968.00
2023-07-03T07:36:47.257Z,94965.00
2023-07-03T07:37:47.249Z,94964.00
2023-07-03T07:38:47.233Z,94961.00
2023-07-03T07:39:47.217Z,94960.00
2023-07-03T07:40:47.337Z,94961.00
2023-07-03T07:41:47.259Z,94964.00
2023-07-03T07:42:47.262Z,94963.00
2023-07-03T07:43:47.233Z,94967.00
2023-07-03T07:44:47.234Z,94968.00
2023-07-03T07:45:47.238Z,94969.00
2023-07-03T07:46:47.496Z,94968.00
2023-07-03T07:47:47.317Z,94967.00
2023-07-03T07:48:47.289Z,94964.00
2023-07-03T07:49:47.234Z,94967.00
2023-07-03T07:50:47.257Z,94969.00
2023-07-03T07:51:47.244Z,94966.00
2023-07-03T07:52:47.311Z,94968.00
2023-07-03T07:53:47.241Z,94967.00
2023-07-03T07:54:47.207Z,94967.00
2023-07-03T07:55:47.233Z,94966.00
2023-07-03T07:56:47.199Z,94966.00
2023-07-03T07:57:47.207Z,94966.00
2023-07-03T07:58:47.184Z,94968.00
2023-07-03T07:59:47.161Z,94966.00
2023-07-03T08:00:47.172Z,94970.00
2023-07-03T08:01:47.163Z,94969.00
2023-07-03T08:02:47.154Z,94965.00
2023-07-03T08:03:47.194Z,94968.00
2023-07-03T08:04:47.244Z,94969.00
2023-07-03T08:05:47.098Z,94963.00
2023-07-03T08:06:47.112Z,94963.00
2023-07-03T08:07:47.067Z,94965.00
2023-07-03T08:08:47.055Z,94968.00
2023-07-03T08:09:47.075Z,94966.00
2023-07-03T08:10:47.055Z,94965.00
2023-07-03T08:11:47.072Z,94968.00
2023-07-03T08:12:47.148Z,94966.00
2023-07-03T08:13:47.060Z,94966.00
2023-07-03T08:14:47.041Z,94967.00
2023-07-03T08:15:47.020Z,94968.00
2023-07-03T08:16:47.073Z,94968.00
2023-07-03T08:17:47.996Z,94971.00
2023-07-03T08:18:49.651Z,94970.00
2023-07-03T08:19:47.012Z,94973.00
2023-07-03T08:20:46.983Z,94970.00
2023-07-03T08:21:47.023Z,94970.00
2023-07-03T08:22:46.991Z,94970.00
2023-07-03T08:23:46.979Z,94970.00
2023-07-03T08:24:47.005Z,94969.00
2023-07-03T08:25:46.974Z,94970.00
2023-07-03T08:26:46.959Z,94968.00
2023-07-03T08:27:46.984Z,94970.00
2023-07-03T08:28:47.056Z,94969.00
2023-07-03T08:29:46.937Z,94971.00
2023-07-03T08:30:46.960Z,94969.00
2023-07-03T08:31:46.945Z,94969.00
2023-07-03T08:32:47.025Z,94969.00
2023-07-03T08:33:46.967Z,94967.00
2023-07-03T08:37:46.882Z,94964.00
2023-07-03T08:38:46.896Z,94962.00
2023-07-03T08:39:46.869Z,94962.00
2023-07-03T08:40:46.844Z,94963.00
2023-07-03T08:41:46.871Z,94961.00
2023-07-03T08:42:46.854Z,94962.00
2023-07-03T08:43:46.846Z,94963.00
2023-07-03T08:44:46.928Z,94962.00
2023-07-03T08:45:46.864Z,94959.00
2023-07-03T08:46:55.451Z,94963.00
2023-07-03T08:47:47.810Z,94963.00
2023-07-03T08:48:46.794Z,94957.00
2023-07-03T08:49:46.776Z,94961.00
2023-07-03T08:50:46.759Z,94960.00
2023-07-03T08:51:46.765Z,94957.00
2023-07-03T08:52:46.760Z,94954.00
2023-07-03T08:53:46.717Z,94953.00
2023-07-03T08:54:46.724Z,94954.00
2023-07-03T08:55:46.739Z,94952.00
2023-07-03T08:56:46.697Z,94954.00
2023-07-03T08:57:46.692Z,94958.00
2023-07-03T08:58:46.706Z,94956.00
2023-07-03T08:59:46.688Z,94956.00
2023-07-03T09:00:46.745Z,94954.00
2023-07-03T09:01:46.785Z,94954.00
2023-07-03T09:02:46.748Z,94954.00
2023-07-03T09:03:46.773Z,94955.00
2023-07-03T09:04:46.680Z,94956.00
2023-07-03T09:05:46.612Z,94953.00
2023-07-03T09:06:46.609Z,94953.00
2023-07-03T09:07:46.570Z,94952.00
2023-07-03T09:08:46.575Z,94954.00
2023-07-03T09:09:46.590Z,94951.00
2023-07-03T09:10:46.619Z,94953.00
2023-07-03T09:11:46.642Z,94953.00
2023-07-03T09:12:46.622Z,94951.00
2023-07-03T09:13:46.669Z,94950.00
2023-07-03T09:14:46.677Z,94953.00
2023-07-03T09:15:46.674Z,94952.00
2023-07-03T09:16:46.794Z,94951.00
2023-07-03T09:17:46.737Z,94950.00
2023-07-03T09:18:47.080Z,94949.00
2023-07-03T09:19:46.885Z,94949.00
2023-07-03T09:20:46.749Z,94948.00
2023-07-03T09:21:46.779Z,94944.00
2023-07-03T09:22:46.798Z,94944.00
2023-07-03T09:23:46.797Z,94945.00
2023-07-03T09:24:46.797Z,94945.00
2023-07-03T09:25:46.810Z,94947.00
2023-07-03T09:26:47.852Z,94950.00
2023-07-03T09:27:48.325Z,94948.00
2023-07-03T09:28:46.832Z,94946.00
2023-07-03T09:29:46.901Z,94946.00
2023-07-03T09:30:47.763Z,94948.00
2023-07-03T09:31:46.872Z,94949.00
2023-07-03T09:32:46.940Z,94944.00
2023-07-03T09:33:46.872Z,94948.00
2023-07-03T09:34:46.793Z,94942.00
2023-07-03T09:35:46.794Z,94948.00
2023-07-03T09:36:46.805Z,94946.00
2023-07-03T09:37:46.826Z,94945.00
2023-07-03T09:38:46.825Z,94942.00
2023-07-03T09:39:46.914Z,94943.00
2023-07-03T09:40:47.058Z,94941.00
2023-07-03T09:41:47.888Z,94937.00
2023-07-03T09:42:49.744Z,94938.00
2023-07-03T09:43:46.837Z,94938.00
2023-07-03T09:44:46.917Z,94934.00
2023-07-03T09:45:46.830Z,94933.00
2023-07-03T09:46:46.840Z,94932.00
2023-07-03T09:47:46.847Z,94932.00
2023-07-03T09:48:47.037Z,94932.00
2023-07-03T09:49:46.791Z,94926.00
2023-07-03T09:51:04.936Z,94928.00
2023-07-03T09:51:47.777Z,94931.00
2023-07-03T09:52:59.605Z,94929.00
2023-07-03T09:53:47.740Z,94923.00
2023-07-03T09:54:46.737Z,94920.00
2023-07-03T09:55:46.750Z,94925.00
2023-07-03T09:56:46.722Z,94921.00
2023-07-03T09:57:46.709Z,94915.00
2023-07-03T09:58:46.692Z,94914.00
2023-07-03T09:59:46.682Z,94915.00
2023-07-03T10:00:48.424Z,94910.00
2023-07-03T10:03:46.794Z,94917.00
2023-07-03T10:06:46.730Z,94908.00
2023-07-03T10:07:46.724Z,94909.00
2023-07-03T10:08:46.813Z,94911.00
2023-07-03T10:11:46.652Z,94910.00
2023-07-03T10:12:46.602Z,94907.00
2023-07-03T10:13:46.538Z,94906.00
2023-07-03T10:14:46.548Z,94898.00
2023-07-03T10:15:46.505Z,94895.00
2023-07-03T10:16:46.594Z,94903.00
2023-07-03T10:17:46.584Z,94901.00
2023-07-03T10:18:46.487Z,94905.00
2023-07-03T10:19:46.473Z,94896.00
2023-07-03T10:20:46.564Z,94893.00
2023-07-03T10:21:46.489Z,94897.00
2023-07-03T10:22:46.470Z,94896.00
2023-07-03T10:23:46.455Z,94892.00
2023-07-03T10:24:46.476Z,94893.00
2023-07-03T10:25:46.427Z,94891.00
2023-07-03T10:26:46.443Z,94889.00
2023-07-03T10:27:46.457Z,94887.00
2023-07-03T10:28:46.466Z,94886.00
2023-07-03T10:29:46.426Z,94891.00
2023-07-03T10:30:46.413Z,94883.00
2023-07-03T10:31:46.564Z,94884.00
2023-07-03T10:32:46.451Z,94884.00
2023-07-03T10:33:46.394Z,94890.00
2023-07-03T10:34:46.406Z,94884.00
2023-07-03T10:35:46.370Z,94883.00
2023-07-03T10:36:46.447Z,94881.00
2023-07-03T10:37:46.337Z,94883.00
2023-07-03T10:38:46.364Z,94880.00
2023-07-03T10:39:46.339Z,94880.00
2023-07-03T10:40:46.324Z,94877.00
2023-07-03T10:41:46.338Z,94882.00
2023-07-03T10:42:46.329Z,94881.00
2023-07-03T10:43:46.311Z,94880.00
2023-07-03T10:44:46.292Z,94877.00
2023-07-03T10:45:46.332Z,94878.00
2023-07-03T10:46:46.375Z,94879.00
2023-07-03T10:47:46.428Z,94877.00
2023-07-03T10:48:46.285Z,94874.00
2023-07-03T10:49:46.265Z,94877.00
2023-07-03T10:50:46.280Z,94879.00
2023-07-03T10:51:46.283Z,94876.00
2023-07-03T10:52:46.421Z,94880.00
2023-07-03T10:53:46.302Z,94878.00
2023-07-03T10:54:46.337Z,94879.00
2023-07-03T10:55:46.349Z,94877.00
2023-07-03T10:56:46.314Z,94872.00
2023-07-03T10:57:46.309Z,94875.00
2023-07-03T10:58:46.322Z,94876.00
2023-07-03T10:59:46.308Z,94871.00
2023-07-03T11:00:46.344Z,94870.00
2023-07-03T11:01:46.449Z,94871.00
2023-07-03T11:02:46.424Z,94870.00
2023-07-03T11:03:47.821Z,94874.00
2023-07-03T11:04:46.437Z,94868.00
2023-07-03T11:05:46.383Z,94869.00
2023-07-03T11:06:46.380Z,94869.00
2023-07-03T11:07:46.429Z,94866.00
2023-07-03T11:08:46.495Z,94865.00
2023-07-03T11:09:46.431Z,94867.00
2023-07-03T11:10:46.411Z,94863.00
2023-07-03T11:11:46.472Z,94860.00
2023-07-03T11:12:46.451Z,94860.00
2023-07-03T11:13:46.493Z,94857.00
2023-07-03T11:14:46.477Z,94856.00
2023-07-03T11:15:46.516Z,94854.00
2023-07-03T11:16:46.555Z,94853.00
2023-07-03T11:22:46.558Z,94851.00
2023-07-03T11:23:46.572Z,94853.00
2023-07-03T11:24:46.553Z,94850.00
2023-07-03T11:28:46.523Z,94846.00
2023-07-03T11:29:46.544Z,94846.00
2023-07-03T11:30:46.585Z,94843.00
2023-07-03T11:31:46.799Z,94847.00
2023-07-03T11:32:46.623Z,94844.00
2023-07-03T11:39:46.592Z,94843.00
2023-07-03T11:40:46.626Z,94842.00
2023-07-03T11:43:46.552Z,94844.00
2023-07-03T11:44:46.564Z,94841.00
2023-07-03T11:45:46.594Z,94843.00
2023-07-03T11:46:46.708Z,94840.00
2023-07-03T11:47:46.622Z,94839.00
2023-07-03T11:48:46.715Z,94835.00
2023-07-03T11:49:46.594Z,94836.00
2023-07-03T11:50:46.597Z,94834.00
2023-07-03T11:51:46.617Z,94835.00
2023-07-03T11:52:46.614Z,94834.00
2023-07-03T11:53:46.593Z,94834.00
2023-07-03T11:54:46.595Z,94835.00
2023-07-03T11:55:46.611Z,94832.00
2023-07-03T11:56:46.585Z,94828.00
2023-07-03T11:57:49.963Z,94831.00
2023-07-03T11:58:47.596Z,94826.00
2023-07-03T11:59:46.637Z,94825.00
2023-07-03T12:00:46.672Z,94820.00
2023-07-03T12:01:46.633Z,94815.00
2023-07-03T12:02:46.744Z,94818.00
2023-07-03T12:03:46.702Z,94817.00
2023-07-03T12:04:49.098Z,94804.00
2023-07-03T12:05:46.668Z,94812.00
2023-07-03T12:06:46.660Z,94812.00
2023-07-03T12:07:46.674Z,94810.00
2023-07-03T12:08:46.678Z,94811.00
2023-07-03T12:09:46.690Z,94813.00
2023-07-03T12:10:46.713Z,94808.00